createdAt,value
2022-10-13T00:00:02.904Z,22.2
2022-10-13T00:15:01.918Z,22.1
2022-10-13T00:30:03.209Z,22.1
2022-10-13T00:45:01.775Z,22
2022-10-13T01:00:03.112Z,21.9
2022-10-13T01:15:01.740Z,21.9
2022-10-13T01:30:04.078Z,21.8
2022-10-13T01:45:02.091Z,21.8
2022-10-13T02:00:01.821Z,21.8
2022-10-13T02:15:02.058Z,21.8
2022-10-13T02:30:05.839Z,21.8
2022-10-13T02:45:05.099Z,21.8
2022-10-13T03:00:02.923Z,21.8
2022-10-13T03:30:03.102Z,21.7
2022-10-13T03:45:02.207Z,21.7
2022-10-13T04:00:03.993Z,21.7
2022-10-13T04:15:02.042Z,21.6
2022-10-13T04:30:05.795Z,21.6
2022-10-13T04:45:05.050Z,21.5
2022-10-13T05:00:03.762Z,21.4
2022-10-13T05:15:03.719Z,21.3
2022-10-13T05:30:04.373Z,21.3
2022-10-13T05:45:04.152Z,21.2
2022-10-13T06:00:02.178Z,21.1
2022-10-13T06:15:04.930Z,21
2022-10-13T06:30:06.275Z,21.1
2022-10-13T06:45:05.776Z,21.2
2022-10-13T07:00:02.969Z,21.3
2022-10-13T07:15:03.119Z,21.5
2022-10-13T07:30:02.342Z,21.8
2022-10-13T07:45:06.003Z,21.9
2022-10-13T08:00:03.170Z,22
2022-10-13T08:15:04.697Z,22.1
2022-10-13T08:30:04.093Z,22.2
2022-10-13T08:45:02.117Z,22.2
2022-10-13T09:00:02.782Z,22.2
2022-10-13T09:15:02.846Z,22.1
2022-10-13T09:30:04.977Z,22.1
2022-10-13T09:45:04.745Z,22
2022-10-13T10:00:02.085Z,22
2022-10-13T10:15:03.814Z,22
2022-10-13T10:30:02.775Z,22
2022-10-13T11:00:03.883Z,21.8
2022-10-13T11:15:01.866Z,21.9
2022-10-13T11:30:05.177Z,21.9
2022-10-13T11:45:03.006Z,21.9
2022-10-13T12:00:06.220Z,22
2022-10-13T12:15:04.764Z,22.1
2022-10-13T13:00:06.066Z,22.2
2022-10-13T13:15:06.234Z,22.3
2022-10-13T13:30:01.825Z,22.4
2022-10-13T13:45:06.190Z,22.5
2022-10-13T14:00:03.781Z,22.5
2022-10-13T14:15:06.233Z,22.5
2022-10-13T14:30:04.847Z,22.5
2022-10-13T14:45:02.722Z,22.5
2022-10-13T15:00:05.214Z,22.5
2022-10-13T15:15:04.860Z,22.5
2022-10-13T15:30:05.178Z,22.6
2022-10-13T15:45:02.941Z,22.6
2022-10-13T16:00:05.898Z,22.7
2022-10-13T16:15:04.120Z,22.7
2022-10-13T16:30:06.116Z,22.8
2022-10-13T17:00:03.165Z,22.8
2022-10-13T17:15:04.734Z,22.8
2022-10-13T17:30:03.080Z,22.9
2022-10-13T17:45:02.119Z,22.9
2022-10-13T18:00:02.801Z,22.9
2022-10-13T18:15:05.852Z,22.9
2022-10-13T18:30:05.032Z,22.9
2022-10-13T18:45:01.706Z,23
2022-10-13T19:00:02.940Z,23
2022-10-13T19:15:06.079Z,23
2022-10-13T19:30:01.821Z,23.1
2022-10-13T19:45:04.021Z,23.1
2022-10-13T20:00:04.928Z,23.1
2022-10-13T20:15:05.741Z,23.1
2022-10-13T20:30:02.996Z,23.1
2022-10-13T20:45:02.036Z,23
2022-10-13T21:00:03.270Z,23
2022-10-13T21:15:04.259Z,22.9
2022-10-13T21:30:03.245Z,22.8
2022-10-13T21:45:03.723Z,22.7
2022-10-13T22:00:02.268Z,22.6
2022-10-13T22:15:03.874Z,22.6
2022-10-13T22:30:01.834Z,22.5
2022-10-13T23:00:06.246Z,22.4
2022-10-13T23:15:02.890Z,22.4
2022-10-13T23:30:05.856Z,22.3
2022-10-13T23:45:06.063Z,22.3
